Latest Weather Observations for Lord Howe Island Windy Point

IDN60801

Issued at 8:14 pm EDT Friday 19 December 2014 (issued every 30 minutes, with the page automatically refreshed every 10 minutes)

About weather observations | Map of weather stations | Latest weather observations for NSW | Other Formats
Station Details ID: 200715 Name: LORD HOWE ISLAND WINDY POINT Lat: -31.54 Lon: 159.07 Height: 4.0 m
Data from the previous 72 hours. | See also: Recent months for locations in New South Wales
Date/Time
EDT
Temp
°C
App
Temp
°C
Dew
Point
Rel
Hum
%
Delta-T
°C
Wind Press
QNH
hPa
Press
MSL
hPa
Rain
since 9 am
mm
Dir
 
Spd
km/h
Gust
km/h
Spd
kts
Gust
kts
19/08:00pm - - - - - NW 2 11 1 6 - - -
19/07:30pm - - - - - NW 11 17 6 9 - - -
19/07:00pm - - - - - WNW 6 11 3 6 - - -
19/06:30pm - - - - - NW 15 20 8 11 - - -
19/06:00pm - - - - - NW 9 19 5 10 - - -
19/05:30pm - - - - - NW 19 24 10 13 - - -
19/05:00pm - - - - - WNW 19 26 10 14 - - -
19/04:30pm - - - - - NW 17 26 9 14 - - -
19/04:00pm - - - - - NW 20 26 11 14 - - -
19/03:30pm - - - - - NW 24 28 13 15 - - -
19/03:00pm - - - - - NW 24 32 13 17 - - -
19/02:30pm - - - - - NNW 17 24 9 13 - - -
19/02:00pm - - - - - NNW 20 28 11 15 - - -
19/01:30pm - - - - - NW 17 26 9 14 - - -
19/01:00pm - - - - - NW 17 26 9 14 - - -
19/12:30pm - - - - - NNW 15 35 8 19 - - -
19/12:00pm - - - - - NNW 17 32 9 17 - - -
19/11:30am - - - - - NW 15 28 8 15 - - -
19/11:00am - - - - - WNW 19 24 10 13 - - -
19/10:30am - - - - - NW 19 24 10 13 - - -
19/10:00am - - - - - NW 17 24 9 13 - - -
19/09:30am - - - - - NW 19 26 10 14 - - -
19/09:00am - - - - - NW 22 30 12 16 - - -
19/08:30am - - - - - NW 20 26 11 14 - - -
19/08:00am - - - - - WNW 30 35 16 19 - - -
19/07:30am - - - - - WNW 28 35 15 19 - - -
19/07:00am - - - - - WNW 30 39 16 21 - - -
19/06:30am - - - - - WNW 30 37 16 20 - - -
19/06:00am - - - - - NW 32 41 17 22 - - -
19/05:30am - - - - - NW 33 43 18 23 - - -
19/05:00am - - - - - NW 28 41 15 22 - - -
19/04:30am - - - - - W 28 44 15 24 - - -
19/04:01am - - - - - NNW 28 46 15 25 - - -
19/04:00am - - - - - NNW 26 46 14 25 - - -
19/03:56am - - - - - NNW 28 48 15 26 - - -
19/03:30am - - - - - NNW 24 43 13 23 - - -
19/03:03am - - - - - NNW 28 48 15 26 - - -
19/03:00am - - - - - NNW 24 35 13 19 - - -
19/02:30am - - - - - NNW 30 56 16 30 - - -
19/02:00am - - - - - NNW 28 57 15 31 - - -
19/01:30am - - - - - NNW 30 56 16 30 - - -
19/01:00am - - - - - NNW 28 48 15 26 - - -
19/12:34am - - - - - NW 32 54 17 29 - - -
19/12:30am - - - - - NW 30 44 16 24 - - -
19/12:10am - - - - - NW 28 52 15 28 - - -
19/12:00am - - - - - NW 28 43 15 23 - - -
 
Date/Time
EDT
Temp
°C
App
Temp
°C
Dew
Point
Rel
Hum
%
Delta-T
°C
Wind Press
QNH
hPa
Press
MSL
hPa
Rain
since 9 am
mm
Dir
 
Spd
km/h
Gust
km/h
Spd
kts
Gust
kts
18/11:30pm - - - - - NNW 24 46 13 25 - - -
18/11:00pm - - - - - NNW 28 46 15 25 - - -
18/10:56pm - - - - - NW 28 46 15 25 - - -
18/10:30pm - - - - - NW 15 24 8 13 - - -
18/10:00pm - - - - - WNW 13 24 7 13 - - -
18/09:30pm - - - - - NE 9 19 5 10 - - -
18/09:00pm - - - - - W 11 17 6 9 - - -
18/08:30pm - - - - - NNW 11 26 6 14 - - -
18/08:00pm - - - - - ENE 9 22 5 12 - - -
18/07:30pm - - - - - SSE 7 11 4 6 - - -
18/07:00pm - - - - - WNW 6 15 3 8 - - -
18/06:30pm - - - - - W 7 13 4 7 - - -
18/06:00pm - - - - - NNW 7 17 4 9 - - -
18/05:30pm - - - - - NNE 11 17 6 9 - - -
18/05:00pm - - - - - NNW 17 26 9 14 - - -
18/04:30pm - - - - - NW 17 28 9 15 - - -
18/04:00pm - - - - - NW 15 24 8 13 - - -
18/03:30pm - - - - - NNW 11 19 6 10 - - -
18/03:00pm - - - - - NW 15 26 8 14 - - -
18/02:30pm - - - - - NW 17 28 9 15 - - -
18/02:00pm - - - - - NW 19 30 10 16 - - -
18/01:30pm - - - - - WSW 9 13 5 7 - - -
18/01:00pm - - - - - WSW 13 15 7 8 - - -
18/12:30pm - - - - - WSW 13 15 7 8 - - -
18/12:00pm - - - - - WSW 13 17 7 9 - - -
18/11:30am - - - - - W 17 20 9 11 - - -
18/11:00am - - - - - W 20 26 11 14 - - -
18/10:30am - - - - - NW 24 33 13 18 - - -
18/10:00am - - - - - NW 22 30 12 16 - - -
18/09:30am - - - - - NW 24 35 13 19 - - -
18/09:00am - - - - - NW 19 28 10 15 - - -
18/08:30am - - - - - NW 22 28 12 15 - - -
18/08:00am - - - - - NW 20 30 11 16 - - -
18/07:30am - - - - - NW 20 33 11 18 - - -
18/07:00am - - - - - WNW 22 28 12 15 - - -
18/06:30am - - - - - WNW 20 26 11 14 - - -
18/06:00am - - - - - WNW 15 22 8 12 - - -
18/05:30am - - - - - WNW 20 26 11 14 - - -
18/05:00am - - - - - NW 24 32 13 17 - - -
18/04:30am - - - - - WNW 17 24 9 13 - - -
18/04:00am - - - - - WNW 22 30 12 16 - - -
18/03:30am - - - - - NW 20 30 11 16 - - -
18/03:00am - - - - - WNW 26 33 14 18 - - -
18/02:30am - - - - - NW 17 26 9 14 - - -
18/02:00am - - - - - WNW 28 37 15 20 - - -
18/01:30am - - - - - WNW 30 37 16 20 - - -
18/01:00am - - - - - NW 26 35 14 19 - - -
18/12:30am - - - - - NW 22 32 12 17 - - -
18/12:00am - - - - - NNW 19 37 10 20 - - -
 
Date/Time
EDT
Temp
°C
App
Temp
°C
Dew
Point
Rel
Hum
%
Delta-T
°C
Wind Press
QNH
hPa
Press
MSL
hPa
Rain
since 9 am
mm
Dir
 
Spd
km/h
Gust
km/h
Spd
kts
Gust
kts
17/11:30pm - - - - - NNW 17 32 9 17 - - -
17/11:00pm - - - - - NNW 22 33 12 18 - - -
17/10:30pm - - - - - NNW 20 30 11 16 - - -
17/10:00pm - - - - - NNW 19 30 10 16 - - -
17/09:30pm - - - - - NW 20 28 11 15 - - -
17/09:00pm - - - - - NW 22 30 12 16 - - -
17/08:30pm - - - - - NNW 24 35 13 19 - - -
17/08:00pm - - - - - NNW 24 39 13 21 - - -
17/07:30pm - - - - - NNW 22 32 12 17 - - -
17/07:00pm - - - - - NNW 24 35 13 19 - - -
17/06:30pm - - - - - NNW 24 33 13 18 - - -
17/06:00pm - - - - - NNW 24 35 13 19 - - -
17/05:30pm - - - - - NNW 24 37 13 20 - - -
17/05:00pm - - - - - NNW 22 35 12 19 - - -
17/04:30pm - - - - - NNW 24 41 13 22 - - -
17/04:00pm - - - - - NW 22 35 12 19 - - -
17/03:30pm - - - - - NNW 20 37 11 20 - - -
17/03:00pm - - - - - NW 26 39 14 21 - - -
17/02:30pm - - - - - NW 20 32 11 17 - - -
17/02:00pm - - - - - NW 19 35 10 19 - - -
17/01:30pm - - - - - NW 13 24 7 13 - - -
17/01:00pm - - - - - NW 17 28 9 15 - - -
17/12:30pm - - - - - NW 17 28 9 15 - - -
17/12:00pm - - - - - NNW 15 28 8 15 - - -
17/11:30am - - - - - NNW 13 26 7 14 - - -
17/11:00am - - - - - N 15 22 8 12 - - -
17/10:30am - - - - - NW 15 26 8 14 - - -
17/10:00am - - - - - NNW 17 26 9 14 - - -
17/09:30am - - - - - NW 11 26 6 14 - - -
17/09:00am - - - - - NW 20 35 11 19 - - -
17/08:30am - - - - - NW 13 22 7 12 - - -
17/08:00am - - - - - NW 13 24 7 13 - - -
17/07:30am - - - - - NW 19 26 10 14 - - -
17/07:00am - - - - - NW 15 20 8 11 - - -
17/06:30am - - - - - NW 17 20 9 11 - - -
17/06:00am - - - - - NW 13 19 7 10 - - -
17/05:30am - - - - - NW 15 22 8 12 - - -
17/05:00am - - - - - NNW 7 11 4 6 - - -
17/04:30am - - - - - NNW 7 9 4 5 - - -
17/04:00am - - - - - NW 15 20 8 11 - - -
17/03:30am - - - - - WNW 17 20 9 11 - - -
17/03:00am - - - - - WNW 19 24 10 13 - - -
17/02:30am - - - - - WNW 20 30 11 16 - - -
17/02:00am - - - - - WNW 20 28 11 15 - - -
17/01:30am - - - - - WNW 17 24 9 13 - - -
17/01:00am - - - - - CALM 0 0 0 0 - - -
17/12:30am - - - - - CALM 0 0 0 0 - - -
17/12:00am - - - - - CALM 0 0 0 0 - - -
 
Date/Time
EDT
Temp
°C
App
Temp
°C
Dew
Point
Rel
Hum
%
Delta-T
°C
Wind Press
QNH
hPa
Press
MSL
hPa
Rain
since 9 am
mm
Dir
 
Spd
km/h
Gust
km/h
Spd
kts
Gust
kts
16/11:30pm - - - - - NE 2 6 1 3 - - -
16/11:00pm - - - - - ENE 6 9 3 5 - - -
16/10:30pm - - - - - ENE 7 9 4 5 - - -
16/10:00pm - - - - - E 6 9 3 5 - - -
16/09:30pm - - - - - ESE 11 15 6 8 - - -
16/09:00pm - - - - - ESE 11 17 6 9 - - -
16/08:30pm - - - - - ESE 15 22 8 12 - - -

Other Formats:

Comma delimited format used in spreadsheet applications
http://www.bom.gov.au/fwo/IDN60801/IDN60801.95995.axf

JavaScript Object Notation format (JSON) in row-major order
http://www.bom.gov.au/fwo/IDN60801/IDN60801.95995.json